createdAt,value
2023-04-05T00:02:21.713Z,13.10
2023-04-05T00:04:57.544Z,16.50
2023-04-05T00:07:26.466Z,14.10
2023-04-05T00:09:54.402Z,14.70
2023-04-05T00:12:22.297Z,13.60
2023-04-05T00:14:51.014Z,15.50
2023-04-05T00:17:18.923Z,13.70
2023-04-05T00:19:51.624Z,13.00
2023-04-05T00:22:25.644Z,13.30
2023-04-05T00:24:53.385Z,12.90
2023-04-05T00:27:21.155Z,15.00
2023-04-05T00:29:49.068Z,13.20
2023-04-05T00:32:17.196Z,12.60
2023-04-05T00:34:45.230Z,12.80
2023-04-05T00:37:13.043Z,16.00
2023-04-05T00:39:41.464Z,16.10
2023-04-05T00:42:09.554Z,14.40
2023-04-05T00:44:37.499Z,13.80
2023-04-05T00:47:06.626Z,12.50
2023-04-05T00:49:35.184Z,15.60
2023-04-05T00:52:04.082Z,17.50
2023-04-05T00:54:31.976Z,16.80
2023-04-05T00:57:00.068Z,15.90
2023-04-05T00:59:31.450Z,15.10
2023-04-05T01:02:04.993Z,15.80
2023-04-05T01:04:33.679Z,16.70
2023-04-05T01:07:10.150Z,14.20
2023-04-05T01:09:57.546Z,14.10
2023-04-05T01:12:28.645Z,13.20
2023-04-05T01:14:56.361Z,15.70
2023-04-05T01:17:28.116Z,14.60
2023-04-05T01:20:10.765Z,15.20
2023-04-05T01:22:38.435Z,14.10
2023-04-05T01:25:25.561Z,14.30
2023-04-05T01:27:59.633Z,15.60
2023-04-05T01:30:33.028Z,13.10
2023-04-05T01:33:13.927Z,13.40
2023-04-05T01:35:52.203Z,15.70
2023-04-05T01:38:24.946Z,16.00
2023-04-05T01:40:53.451Z,14.00
2023-04-05T01:43:21.149Z,13.30
2023-04-05T01:45:49.099Z,13.00
2023-04-05T01:48:17.081Z,13.30
2023-04-05T01:50:44.940Z,14.10
2023-04-05T01:53:12.685Z,14.50
2023-04-05T01:55:40.768Z,16.50
2023-04-05T01:58:09.112Z,13.50
2023-04-05T02:00:36.934Z,15.90
2023-04-05T02:03:04.713Z,17.20
2023-04-05T02:05:32.500Z,14.90
2023-04-05T02:08:00.623Z,13.40
2023-04-05T02:10:28.969Z,16.50
2023-04-05T02:12:56.915Z,15.00
2023-04-05T02:15:24.712Z,13.10
2023-04-05T02:17:54.326Z,15.10
2023-04-05T02:20:22.317Z,13.90
2023-04-05T02:22:51.877Z,15.60
2023-04-05T02:25:19.915Z,15.20
2023-04-05T02:27:48.244Z,18.10
2023-04-05T02:30:16.597Z,14.50
2023-04-05T02:32:45.995Z,16.00
2023-04-05T02:35:14.072Z,17.10
2023-04-05T02:37:42.852Z,16.80
2023-04-05T02:40:12.335Z,18.50
2023-04-05T02:42:39.964Z,16.10
2023-04-05T02:45:08.629Z,18.70
2023-04-05T02:47:36.504Z,16.50
2023-04-05T02:50:04.586Z,17.40
2023-04-05T02:52:32.406Z,17.50
2023-04-05T02:55:00.172Z,15.40
2023-04-05T02:57:28.177Z,17.10
2023-04-05T02:59:56.307Z,17.10
2023-04-05T03:02:24.321Z,18.40
2023-04-05T03:04:53.449Z,16.00
2023-04-05T03:07:21.930Z,16.20
2023-04-05T03:09:51.464Z,24.80
2023-04-05T03:12:19.484Z,22.00
2023-04-05T03:14:47.329Z,22.20
2023-04-05T03:17:15.098Z,75.60
2023-04-05T03:19:43.387Z,286.80
2023-04-05T03:22:11.430Z,192.50
2023-04-05T03:24:39.222Z,93.00
2023-04-05T03:27:07.774Z,31.00
2023-04-05T03:29:35.842Z,20.50
2023-04-05T03:32:03.811Z,17.70
2023-04-05T03:34:31.637Z,19.50
2023-04-05T03:36:59.409Z,19.10
2023-04-05T03:39:27.179Z,17.90
2023-04-05T03:41:54.982Z,22.30
2023-04-05T03:44:22.811Z,20.30
2023-04-05T03:46:50.699Z,22.80
2023-04-05T03:49:20.034Z,23.10
2023-04-05T03:51:48.006Z,17.10
2023-04-05T03:54:16.549Z,20.20
2023-04-05T03:56:44.294Z,16.80
2023-04-05T03:59:12.427Z,17.90
2023-04-05T04:01:41.378Z,17.60
2023-04-05T04:04:09.855Z,17.80
2023-04-05T04:06:38.174Z,19.10
2023-04-05T04:09:06.003Z,17.00
2023-04-05T04:11:33.703Z,16.50
2023-04-05T04:14:01.557Z,16.50
2023-04-05T04:16:29.663Z,17.20
2023-04-05T04:18:57.629Z,16.00
2023-04-05T04:21:25.501Z,19.40
2023-04-05T04:23:53.389Z,18.50
2023-04-05T04:26:27.074Z,16.00
2023-04-05T04:28:55.552Z,17.00
2023-04-05T04:31:23.425Z,17.50
2023-04-05T04:33:51.580Z,16.70
2023-04-05T04:36:26.759Z,15.90
2023-04-05T04:38:54.775Z,22.60
2023-04-05T04:41:22.876Z,19.30
2023-04-05T04:43:50.751Z,15.80
2023-04-05T04:46:19.238Z,17.90
2023-04-05T04:48:47.375Z,17.10
2023-04-05T04:51:15.580Z,20.40
2023-04-05T04:53:43.432Z,18.30
2023-04-05T04:56:11.411Z,18.40
2023-04-05T04:58:39.283Z,15.30
2023-04-05T05:01:08.866Z,15.70
2023-04-05T05:03:38.652Z,18.30
2023-04-05T05:06:06.873Z,18.40
2023-04-05T05:08:35.841Z,19.40
2023-04-05T05:11:06.661Z,20.10
2023-04-05T05:13:34.614Z,15.80
2023-04-05T05:16:04.743Z,16.50
2023-04-05T05:18:32.589Z,15.10
2023-04-05T05:21:00.491Z,19.00
2023-04-05T05:23:28.282Z,16.60
2023-04-05T05:25:59.842Z,17.40
2023-04-05T05:28:27.797Z,17.50
2023-04-05T05:30:55.844Z,37.70
2023-04-05T05:33:25.479Z,34.10
2023-04-05T05:35:53.432Z,19.10
2023-04-05T05:38:22.253Z,18.60
2023-04-05T05:40:55.678Z,18.80
2023-04-05T05:43:23.408Z,17.70
2023-04-05T05:45:51.318Z,17.40
2023-04-05T05:48:19.350Z,19.70
2023-04-05T05:50:49.311Z,18.80
2023-04-05T05:53:18.341Z,16.10
2023-04-05T05:55:46.834Z,17.00
2023-04-05T05:58:14.638Z,18.50
2023-04-05T06:00:42.937Z,19.30
2023-04-05T06:03:11.118Z,17.50
2023-04-05T06:05:39.310Z,23.40
2023-04-05T06:08:08.094Z,24.10
2023-04-05T06:10:37.925Z,26.80
2023-04-05T06:13:05.767Z,19.30
2023-04-05T06:15:33.721Z,19.70
2023-04-05T06:18:01.818Z,18.90
2023-04-05T06:20:29.775Z,18.30
2023-04-05T06:22:57.493Z,18.00
2023-04-05T06:25:25.415Z,16.20
2023-04-05T06:27:53.253Z,20.50
2023-04-05T06:30:21.239Z,17.60
2023-04-05T06:32:54.373Z,19.10
2023-04-05T06:35:22.312Z,17.00
2023-04-05T06:37:51.296Z,21.00
2023-04-05T06:40:19.968Z,14.30
2023-04-05T06:42:47.744Z,14.90
2023-04-05T06:45:16.322Z,16.10
2023-04-05T06:47:44.168Z,14.10
2023-04-05T06:50:12.185Z,14.90
2023-04-05T06:52:39.989Z,14.00
2023-04-05T06:55:08.287Z,15.10
2023-04-05T06:57:36.259Z,20.10
2023-04-05T07:00:10.366Z,84.10
2023-04-05T07:02:38.643Z,22.20
2023-04-05T07:05:07.162Z,21.70
2023-04-05T07:07:39.094Z,12.60
2023-04-05T07:10:07.496Z,15.60
2023-04-05T07:12:35.944Z,16.80
2023-04-05T07:15:04.223Z,12.40
2023-04-05T07:17:32.851Z,11.00
2023-04-05T07:20:00.805Z,16.10
2023-04-05T07:22:28.810Z,123.70
2023-04-05T07:24:57.605Z,68.10
2023-04-05T07:27:25.569Z,66.90
2023-04-05T07:29:53.869Z,35.80
2023-04-05T07:32:21.754Z,24.10
2023-04-05T07:34:50.194Z,17.70
2023-04-05T07:37:18.253Z,13.20
2023-04-05T07:39:46.223Z,9.30
2023-04-05T07:42:14.054Z,6.40
2023-04-05T07:44:41.840Z,8.40
2023-04-05T07:47:09.660Z,9.50
2023-04-05T07:49:38.106Z,9.30
2023-04-05T07:52:06.508Z,8.10
2023-04-05T07:54:34.220Z,11.60
2023-04-05T07:57:02.765Z,9.20
2023-04-05T07:59:30.844Z,11.10
2023-04-05T08:02:05.016Z,8.20
2023-04-05T08:04:40.618Z,7.30
2023-04-05T08:07:08.927Z,7.50
2023-04-05T08:09:36.731Z,9.90
2023-04-05T08:12:04.995Z,7.50
2023-04-05T08:14:32.782Z,10.60
2023-04-05T08:17:00.854Z,9.50
2023-04-05T08:19:28.826Z,8.90
2023-04-05T08:21:57.208Z,9.30
2023-04-05T08:24:25.151Z,7.60
2023-04-05T08:26:53.757Z,8.60
2023-04-05T08:29:22.221Z,10.20
2023-04-05T08:31:50.222Z,8.40
2023-04-05T08:34:18.543Z,13.30
2023-04-05T08:36:48.267Z,11.80
2023-04-05T08:39:16.736Z,8.30
2023-04-05T08:41:49.834Z,6.00
2023-04-05T08:44:19.503Z,10.10
2023-04-05T08:46:48.117Z,8.40
2023-04-05T08:49:16.395Z,7.40
2023-04-05T08:51:44.137Z,9.20
2023-04-05T08:54:12.031Z,9.80
2023-04-05T08:56:41.735Z,8.40
2023-04-05T08:59:13.017Z,7.80
2023-04-05T09:01:45.241Z,8.10
2023-04-05T09:04:17.828Z,8.30
2023-04-05T09:06:46.416Z,9.20
2023-04-05T09:09:14.489Z,6.80
2023-04-05T09:11:43.582Z,7.60
2023-04-05T09:14:11.853Z,8.20
2023-04-05T09:16:40.640Z,7.90
2023-04-05T09:19:09.400Z,11.90
2023-04-05T09:21:56.019Z,7.70
2023-04-05T09:24:30.523Z,11.80
2023-04-05T09:27:04.378Z,15.90
2023-04-05T09:29:33.073Z,14.60
2023-04-05T09:32:02.859Z,10.90
2023-04-05T09:34:36.975Z,11.60
2023-04-05T09:37:13.537Z,13.20
2023-04-05T09:39:41.502Z,11.90
2023-04-05T09:42:10.443Z,8.00
2023-04-05T09:44:57.724Z,6.90
2023-04-05T09:47:31.285Z,7.90
2023-04-05T09:49:59.861Z,7.50
2023-04-05T09:52:35.440Z,7.00
2023-04-05T09:55:04.430Z,9.70
2023-04-05T09:57:37.860Z,12.50
2023-04-05T10:00:07.002Z,8.40
2023-04-05T10:02:39.191Z,8.70
2023-04-05T10:05:08.501Z,10.30
2023-04-05T10:07:36.628Z,9.10
2023-04-05T10:10:04.907Z,9.10
2023-04-05T10:12:33.460Z,8.50
2023-04-05T10:15:01.383Z,7.70
2023-04-05T10:17:49.948Z,8.60
2023-04-05T10:20:27.410Z,8.40
2023-04-05T10:23:04.189Z,7.80
2023-04-05T10:25:52.584Z,8.00
2023-04-05T10:28:28.760Z,7.70
2023-04-05T10:31:18.812Z,8.20
2023-04-05T10:34:06.144Z,7.10
2023-04-05T10:36:40.264Z,8.00
2023-04-05T10:39:26.110Z,7.60
2023-04-05T10:41:57.931Z,7.60
2023-04-05T10:44:26.910Z,8.00
2023-04-05T10:46:55.623Z,11.00
2023-04-05T10:49:34.341Z,9.70
2023-04-05T10:52:03.038Z,9.30
2023-04-05T10:54:37.249Z,8.40
2023-04-05T10:57:09.371Z,12.40
2023-04-05T10:59:45.386Z,11.50
2023-04-05T11:02:14.813Z,11.80
2023-04-05T11:04:43.179Z,10.30
2023-04-05T11:07:18.680Z,10.80
2023-04-05T11:10:00.781Z,9.20
2023-04-05T11:12:47.229Z,6.70
2023-04-05T11:15:44.797Z,8.40
2023-04-05T11:18:16.596Z,14.30
2023-04-05T11:20:51.527Z,8.80
2023-04-05T11:23:20.978Z,9.00
2023-04-05T11:25:51.191Z,7.30
2023-04-05T11:28:23.792Z,8.80
2023-04-05T11:30:54.301Z,7.90
2023-04-05T11:33:37.837Z,6.80
2023-04-05T11:36:06.772Z,8.50
2023-04-05T11:38:35.200Z,7.50
2023-04-05T11:41:22.402Z,7.10
2023-04-05T11:46:21.598Z,7.80
2023-04-05T11:48:50.540Z,7.90
2023-04-05T11:51:20.995Z,8.60
2023-04-05T11:53:48.883Z,9.50
2023-04-05T11:56:16.886Z,8.60
2023-04-05T11:58:44.870Z,11.00
2023-04-05T12:01:12.772Z,8.50
2023-04-05T12:03:41.174Z,10.20
2023-04-05T12:06:09.317Z,8.90
2023-04-05T12:08:50.563Z,8.20
2023-04-05T12:11:29.993Z,8.50
2023-04-05T12:13:59.791Z,8.90
2023-04-05T12:16:28.543Z,8.10
2023-04-05T12:19:00.853Z,11.00
2023-04-05T12:21:29.299Z,8.70
2023-04-05T12:23:59.419Z,8.50
2023-04-05T12:26:34.383Z,7.70
2023-04-05T12:29:04.017Z,7.10
2023-04-05T12:31:41.667Z,6.60
2023-04-05T12:34:10.290Z,7.60
2023-04-05T12:36:39.149Z,7.60
2023-04-05T12:39:08.150Z,8.30
2023-04-05T12:41:37.484Z,7.60
2023-04-05T12:44:11.563Z,6.30
2023-04-05T12:46:48.154Z,6.90
2023-04-05T12:49:17.279Z,5.10
2023-04-05T12:51:46.453Z,9.40
2023-04-05T12:54:23.908Z,7.70
2023-04-05T12:56:53.172Z,8.10
2023-04-05T12:59:21.657Z,7.20
2023-04-05T13:01:50.229Z,7.40
2023-04-05T13:04:18.597Z,16.40
2023-04-05T13:06:47.850Z,7.40
2023-04-05T13:09:16.248Z,6.90
2023-04-05T13:11:44.575Z,6.50
2023-04-05T13:14:12.982Z,9.20
2023-04-05T13:16:41.394Z,18.20
2023-04-05T13:19:09.232Z,8.00
2023-04-05T13:21:37.155Z,7.20
2023-04-05T13:24:05.719Z,7.00
2023-04-05T13:26:34.153Z,5.90
2023-04-05T13:29:03.782Z,10.40
2023-04-05T13:31:33.913Z,9.10
2023-04-05T13:34:01.775Z,5.20
2023-04-05T13:36:29.855Z,6.00
2023-04-05T13:38:57.869Z,4.40
2023-04-05T13:41:26.374Z,6.60
2023-04-05T13:43:54.332Z,5.20
2023-04-05T13:46:23.523Z,6.20
2023-04-05T13:48:51.515Z,4.30
2023-04-05T13:51:19.775Z,3.50
2023-04-05T13:53:47.642Z,3.70
2023-04-05T13:56:16.120Z,6.70
2023-04-05T13:58:45.255Z,5.80
2023-04-05T14:01:13.905Z,6.40
2023-04-05T14:03:44.845Z,7.50
2023-04-05T14:06:13.107Z,4.60
2023-04-05T14:08:41.184Z,4.10
2023-04-05T14:11:09.152Z,6.80
2023-04-05T14:13:37.373Z,4.30
2023-04-05T14:16:06.286Z,4.50
2023-04-05T14:18:34.487Z,4.20
2023-04-05T14:21:02.346Z,3.80
2023-04-05T14:23:30.628Z,4.00
2023-04-05T14:25:58.545Z,7.80
2023-04-05T14:28:26.844Z,6.90
2023-04-05T14:30:55.962Z,4.40
2023-04-05T14:33:24.529Z,4.50
2023-04-05T14:35:53.177Z,5.10
2023-04-05T14:38:21.932Z,4.50
2023-04-05T14:40:50.293Z,5.10
2023-04-05T14:43:18.363Z,4.10
2023-04-05T14:45:46.400Z,10.90
2023-04-05T14:48:14.301Z,3.50
2023-04-05T14:50:42.478Z,4.90
2023-04-05T14:53:11.629Z,4.00
2023-04-05T14:55:40.784Z,4.80
2023-04-05T14:58:08.950Z,8.00
2023-04-05T15:00:37.529Z,4.80
2023-04-05T15:03:05.553Z,3.60
2023-04-05T15:05:33.599Z,3.20
2023-04-05T15:08:01.734Z,3.70
2023-04-05T15:10:29.942Z,4.50
2023-04-05T15:12:57.873Z,3.70
2023-04-05T15:15:25.831Z,4.00
2023-04-05T15:17:53.926Z,3.40
2023-04-05T15:20:21.847Z,4.30
2023-04-05T15:22:49.755Z,8.20
2023-04-05T15:25:17.722Z,3.30
2023-04-05T15:27:46.095Z,6.30
2023-04-05T15:30:14.582Z,3.20
2023-04-05T15:32:42.566Z,2.00
2023-04-05T15:35:10.714Z,4.10
2023-04-05T15:37:41.032Z,4.30
2023-04-05T15:40:09.207Z,5.80
2023-04-05T15:42:37.393Z,4.80
2023-04-05T15:45:05.930Z,5.70
2023-04-05T15:47:34.486Z,4.80
2023-04-05T15:50:02.521Z,3.30
2023-04-05T15:52:30.682Z,5.10
2023-04-05T15:54:58.514Z,4.00
2023-04-05T15:57:26.425Z,5.40
2023-04-05T15:59:54.707Z,6.30
2023-04-05T16:02:22.737Z,4.30
2023-04-05T16:04:51.872Z,4.80
2023-04-05T16:07:20.338Z,5.30
2023-04-05T16:09:48.239Z,4.40
2023-04-05T16:12:16.293Z,3.90
2023-04-05T16:14:44.693Z,4.00
2023-04-05T16:17:13.330Z,5.30
2023-04-05T16:19:41.789Z,5.50
2023-04-05T16:22:09.850Z,7.80
2023-04-05T16:24:38.469Z,6.90
2023-04-05T16:27:06.430Z,10.90
2023-04-05T16:29:34.390Z,7.50
2023-04-05T16:32:03.039Z,6.60
2023-04-05T16:34:31.110Z,7.50
2023-04-05T16:36:59.057Z,11.30
2023-04-05T16:39:27.076Z,8.80
2023-04-05T16:41:55.924Z,9.00
2023-04-05T16:44:24.030Z,8.00
2023-04-05T16:46:52.425Z,8.50
2023-04-05T16:49:20.266Z,8.20
2023-04-05T16:51:48.448Z,8.50
2023-04-05T16:54:17.090Z,10.20
2023-04-05T16:56:45.739Z,7.70
2023-04-05T16:59:14.382Z,8.00
2023-04-05T17:01:42.837Z,15.20
2023-04-05T17:04:11.675Z,11.00
2023-04-05T17:06:39.513Z,9.90
2023-04-05T17:09:07.374Z,9.60
2023-04-05T17:11:35.601Z,9.40
2023-04-05T17:14:05.819Z,8.80
2023-04-05T17:16:33.901Z,10.30
2023-04-05T17:19:02.484Z,9.80
2023-04-05T17:21:30.596Z,11.50
2023-04-05T17:23:59.132Z,9.50
2023-04-05T17:26:27.400Z,10.30
2023-04-05T17:28:55.986Z,10.10
2023-04-05T17:31:24.371Z,9.70
2023-04-05T17:33:52.834Z,9.80
2023-04-05T17:36:21.472Z,9.80
2023-04-05T17:38:50.641Z,9.00
2023-04-05T17:41:18.902Z,8.60
2023-04-05T17:43:48.001Z,10.50
2023-04-05T17:46:20.024Z,10.50
2023-04-05T17:48:53.857Z,8.40
2023-04-05T17:51:22.825Z,9.00
2023-04-05T17:53:50.861Z,8.20
2023-04-05T17:56:19.104Z,9.90
2023-04-05T17:58:48.487Z,8.70
2023-04-05T18:01:17.843Z,8.90
2023-04-05T18:03:47.485Z,9.40
2023-04-05T18:06:20.319Z,9.30
2023-04-05T18:08:50.041Z,10.60
2023-04-05T18:11:26.394Z,10.60
2023-04-05T18:13:56.583Z,10.00
2023-04-05T18:16:25.315Z,12.70
2023-04-05T18:18:53.750Z,12.30
2023-04-05T18:21:22.044Z,9.70
2023-04-05T18:23:52.678Z,9.50
2023-04-05T18:26:26.330Z,9.70
2023-04-05T18:29:00.560Z,12.40
2023-04-05T18:31:29.602Z,10.60
2023-04-05T18:33:58.572Z,22.00
2023-04-05T18:36:26.982Z,16.60
2023-04-05T18:38:57.863Z,16.80
2023-04-05T18:41:26.846Z,10.90
2023-04-05T18:43:55.453Z,12.60
2023-04-05T18:46:24.609Z,17.10
2023-04-05T18:48:55.314Z,10.90
2023-04-05T18:51:24.868Z,10.20
2023-04-05T18:53:53.163Z,11.80
2023-04-05T18:56:21.732Z,12.20
2023-04-05T18:58:51.207Z,10.00
2023-04-05T19:01:20.387Z,10.40
2023-04-05T19:03:50.454Z,13.90
2023-04-05T19:06:19.245Z,12.00
2023-04-05T19:08:48.466Z,10.20
2023-04-05T19:11:19.079Z,10.50
2023-04-05T19:13:48.936Z,11.30
2023-04-05T19:16:19.218Z,11.40
2023-04-05T19:18:50.317Z,12.30
2023-04-05T19:21:20.467Z,11.50
2023-04-05T19:23:50.152Z,12.50
2023-04-05T19:26:21.863Z,11.10
2023-04-05T19:28:53.089Z,17.90
2023-04-05T19:31:21.769Z,13.50
2023-04-05T19:33:51.177Z,15.60
2023-04-05T19:36:19.972Z,13.10
2023-04-05T19:38:48.742Z,12.40
2023-04-05T19:41:17.226Z,13.00
2023-04-05T19:43:47.345Z,15.40
2023-04-05T19:46:16.625Z,13.90
2023-04-05T19:48:46.729Z,18.50
2023-04-05T19:51:18.040Z,13.90
2023-04-05T19:53:50.715Z,20.30
2023-04-05T19:56:23.946Z,16.90
2023-04-05T19:59:00.455Z,12.20
2023-04-05T20:01:37.750Z,8.50
2023-04-05T20:04:19.556Z,10.60
2023-04-05T20:06:54.348Z,12.30
2023-04-05T20:09:26.199Z,12.80
2023-04-05T20:11:56.104Z,23.00
2023-04-05T20:14:28.663Z,17.90
2023-04-05T20:16:57.808Z,19.50
2023-04-05T20:19:31.222Z,21.80
2023-04-05T20:22:03.653Z,21.70
2023-04-05T20:24:32.037Z,25.90
2023-04-05T20:27:00.420Z,20.80
2023-04-05T20:29:32.421Z,22.70
2023-04-05T20:32:01.339Z,20.70
2023-04-05T20:34:31.599Z,19.00
2023-04-05T20:37:04.374Z,16.70
2023-04-05T20:39:33.289Z,14.60
2023-04-05T20:42:03.997Z,13.80
2023-04-05T20:44:34.228Z,12.70
2023-04-05T20:47:02.482Z,13.70
2023-04-05T20:49:30.877Z,13.00
2023-04-05T20:52:00.074Z,14.60
2023-04-05T20:54:28.135Z,17.10
2023-04-05T20:56:57.031Z,17.00
2023-04-05T20:59:26.594Z,20.40
2023-04-05T21:01:56.979Z,19.00
2023-04-05T21:04:29.394Z,19.50
2023-04-05T21:07:02.441Z,24.60
2023-04-05T21:09:32.119Z,24.70
2023-04-05T21:12:00.815Z,24.70
2023-04-05T21:14:29.276Z,21.50
2023-04-05T21:16:57.670Z,24.80
2023-04-05T21:19:26.548Z,19.90
2023-04-05T21:21:54.719Z,36.10
2023-04-05T21:24:23.269Z,35.90
2023-04-05T21:26:51.576Z,19.90
2023-04-05T21:29:19.484Z,20.70
2023-04-05T21:31:47.395Z,22.80
2023-04-05T21:34:15.483Z,22.90
2023-04-05T21:36:43.211Z,17.50
2023-04-05T21:39:11.371Z,19.00
2023-04-05T21:41:40.612Z,18.40
2023-04-05T21:44:08.388Z,33.80
2023-04-05T21:46:38.624Z,29.10
2023-04-05T21:49:07.561Z,27.20
2023-04-05T21:51:35.965Z,25.60
2023-04-05T21:54:03.837Z,24.90
2023-04-05T21:56:31.695Z,21.20
2023-04-05T21:58:59.410Z,18.60
2023-04-05T22:01:27.665Z,23.80
2023-04-05T22:03:55.550Z,21.90
2023-04-05T22:06:23.447Z,21.30
2023-04-05T22:08:53.312Z,22.70
2023-04-05T22:11:21.250Z,20.70
2023-04-05T22:13:49.184Z,18.50
2023-04-05T22:16:17.423Z,17.70
2023-04-05T22:18:46.257Z,20.00
2023-04-05T22:21:14.144Z,20.10
2023-04-05T22:23:43.086Z,20.30
2023-04-05T22:26:11.345Z,21.20
2023-04-05T22:28:39.993Z,20.10
2023-04-05T22:31:08.372Z,22.50
2023-04-05T22:33:36.233Z,20.50
2023-04-05T22:36:04.486Z,21.00
2023-04-05T22:38:32.681Z,23.10
2023-04-05T22:41:00.650Z,21.90
2023-04-05T22:43:28.625Z,27.20
2023-04-05T22:45:57.624Z,22.40
2023-04-05T22:48:26.461Z,26.20
2023-04-05T22:50:54.368Z,26.70
2023-04-05T22:53:22.250Z,24.10
2023-04-05T22:55:50.398Z,26.70
2023-04-05T22:58:19.678Z,25.80
2023-04-05T23:00:48.186Z,27.10
2023-04-05T23:03:16.294Z,26.90
2023-04-05T23:05:44.112Z,26.60
2023-04-05T23:08:11.998Z,26.10
2023-04-05T23:10:39.737Z,34.00
2023-04-05T23:13:07.566Z,31.30
2023-04-05T23:15:35.376Z,28.90
2023-04-05T23:18:03.581Z,29.50
2023-04-05T23:20:31.399Z,31.60
2023-04-05T23:23:01.030Z,28.80
2023-04-05T23:25:28.782Z,29.60
2023-04-05T23:27:57.849Z,29.60
2023-04-05T23:30:26.246Z,27.90
2023-04-05T23:32:54.302Z,30.50
2023-04-05T23:35:22.203Z,31.90
2023-04-05T23:37:50.178Z,33.70
2023-04-05T23:40:18.112Z,29.30
2023-04-05T23:42:45.784Z,32.50
2023-04-05T23:45:13.765Z,28.20
2023-04-05T23:47:42.045Z,31.70
2023-04-05T23:50:09.899Z,36.00
2023-04-05T23:52:37.874Z,34.80
2023-04-05T23:55:08.816Z,37.60
2023-04-05T23:57:36.886Z,31.70
